Appleby-in-Westmorland, United Kingdom
Current Conditions -  °F | °C
As of 1:50 AM on Sunday 21 Dec 2014 (Local Time) from EGOM Reporting Station
Broken Clouds Broken Clouds  
Wind Chill: 31°   Ceiling: 200
Heat Index: 41°   Visibility: 6mi
Dew Point: 41°   Wind: 24mph
Humidity: 100%   Direction: 250°WSW
Pressure: 30.12"   Gusts: NA
Location:  54.58°N, 2.5°W
Report Text: EGOM 210150Z AUTO 25021KT 9999 BKN002/// BKN023/// 05/05 Q1020 RERA
Loading
Personal Weather Stations






























Interactive Weather Map New forecast layout! Learn more

10-Day Weather Forecast

Advertisements
Track Severe Weather on mobile